createdAt,value
2022-08-19T00:00:13.173Z,0.00
2022-08-19T00:01:13.083Z,0.00
2022-08-19T00:02:13.073Z,0.00
2022-08-19T00:03:13.044Z,0.00
2022-08-19T00:04:13.126Z,0.00
2022-08-19T00:05:13.045Z,0.00
2022-08-19T00:06:13.022Z,0.00
2022-08-19T00:07:13.022Z,0.00
2022-08-19T00:08:13.063Z,0.00
2022-08-19T00:09:12.976Z,0.00
2022-08-19T00:10:12.954Z,0.00
2022-08-19T00:11:18.577Z,0.00
2022-08-19T00:12:13.968Z,0.00
2022-08-19T00:13:12.931Z,0.00
2022-08-19T00:14:12.922Z,0.00
2022-08-19T00:15:12.910Z,0.00
2022-08-19T00:16:12.891Z,0.00
2022-08-19T00:17:12.902Z,0.00
2022-08-19T00:18:12.960Z,0.00
2022-08-19T00:19:12.869Z,0.00
2022-08-19T00:20:12.866Z,0.00
2022-08-19T00:21:12.800Z,0.00
2022-08-19T00:22:12.839Z,0.00
2022-08-19T00:23:12.804Z,0.00
2022-08-19T00:24:12.810Z,0.00
2022-08-19T00:25:12.829Z,0.00
2022-08-19T00:26:12.778Z,0.00
2022-08-19T00:27:25.731Z,0.00
2022-08-19T00:28:13.745Z,0.00
2022-08-19T00:29:12.708Z,0.00
2022-08-19T00:30:12.718Z,0.00
2022-08-19T00:31:12.707Z,0.00
2022-08-19T00:32:12.727Z,0.00
2022-08-19T00:33:12.676Z,0.00
2022-08-19T00:34:12.686Z,0.00
2022-08-19T00:35:12.645Z,0.00
2022-08-19T00:36:12.695Z,0.00
2022-08-19T00:37:12.626Z,0.00
2022-08-19T00:38:12.615Z,0.00
2022-08-19T00:39:12.694Z,0.00
2022-08-19T00:40:12.654Z,0.00
2022-08-19T00:41:12.640Z,0.00
2022-08-19T00:42:14.284Z,0.00
2022-08-19T00:43:12.638Z,0.00
2022-08-19T00:44:12.514Z,0.00
2022-08-19T00:45:12.544Z,0.00
2022-08-19T00:46:12.531Z,0.00
2022-08-19T00:47:14.320Z,0.00
2022-08-19T00:48:15.129Z,0.00
2022-08-19T00:49:12.473Z,0.00
2022-08-19T00:50:12.533Z,0.00
2022-08-19T00:51:12.452Z,0.00
2022-08-19T00:52:12.457Z,0.00
2022-08-19T00:53:12.463Z,0.00
2022-08-19T00:54:12.392Z,0.00
2022-08-19T00:55:12.402Z,0.00
2022-08-19T00:56:12.392Z,0.00
2022-08-19T00:57:12.412Z,0.00
2022-08-19T00:58:12.362Z,0.00
2022-08-19T00:59:12.361Z,0.00
2022-08-19T01:00:12.321Z,0.00
2022-08-19T01:01:12.371Z,0.00
2022-08-19T01:02:12.321Z,0.00
2022-08-19T01:03:12.331Z,0.00
2022-08-19T01:04:12.296Z,0.00
2022-08-19T01:05:12.261Z,0.00
2022-08-19T01:06:12.236Z,0.00
2022-08-19T01:07:15.187Z,0.00
2022-08-19T01:08:13.207Z,0.00
2022-08-19T01:09:12.220Z,0.00
2022-08-19T01:10:12.204Z,0.00
2022-08-19T01:11:12.168Z,0.00
2022-08-19T01:12:12.198Z,0.00
2022-08-19T01:13:12.139Z,0.00
2022-08-19T01:14:12.140Z,0.00
2022-08-19T01:15:12.159Z,0.00
2022-08-19T01:16:12.139Z,0.00
2022-08-19T01:17:12.088Z,0.00
2022-08-19T01:18:12.097Z,0.00
2022-08-19T01:19:12.107Z,0.00
2022-08-19T01:20:12.096Z,0.00
2022-08-19T01:21:12.084Z,0.00
2022-08-19T01:22:14.413Z,0.00
2022-08-19T01:23:12.033Z,0.00
2022-08-19T01:24:12.046Z,0.00
2022-08-19T01:25:15.071Z,0.00
2022-08-19T01:26:12.023Z,0.00
2022-08-19T01:27:11.995Z,0.00
2022-08-19T01:28:11.975Z,0.00
2022-08-19T01:29:12.031Z,0.00
2022-08-19T01:30:11.925Z,0.00
2022-08-19T01:31:11.947Z,0.00
2022-08-19T01:32:33.231Z,0.00
2022-08-19T01:33:12.896Z,0.00
2022-08-19T01:34:11.885Z,0.00
2022-08-19T01:35:11.936Z,0.00
2022-08-19T01:36:11.846Z,0.00
2022-08-19T01:37:11.853Z,0.00
2022-08-19T01:38:11.853Z,0.00
2022-08-19T01:39:11.854Z,0.00
2022-08-19T01:40:11.838Z,0.00
2022-08-19T01:41:11.803Z,0.00
2022-08-19T01:42:11.805Z,0.00
2022-08-19T01:43:11.808Z,0.00
2022-08-19T01:44:18.430Z,0.00
2022-08-19T01:45:12.743Z,0.00
2022-08-19T01:46:11.731Z,0.00
2022-08-19T01:47:11.731Z,0.00
2022-08-19T01:48:11.690Z,0.00
2022-08-19T01:49:11.711Z,0.00
2022-08-19T01:50:11.668Z,0.00
2022-08-19T01:51:11.711Z,0.00
2022-08-19T01:52:11.649Z,0.00
2022-08-19T01:53:11.650Z,0.00
2022-08-19T01:54:11.639Z,0.00
2022-08-19T01:55:11.629Z,0.00
2022-08-19T01:56:11.598Z,0.00
2022-08-19T01:57:11.608Z,0.00
2022-08-19T01:58:11.576Z,0.00
2022-08-19T01:59:11.575Z,0.00
2022-08-19T02:00:11.558Z,0.00
2022-08-19T02:01:11.608Z,0.00
2022-08-19T02:02:11.534Z,0.00
2022-08-19T02:03:11.659Z,0.00
2022-08-19T02:04:11.507Z,0.00
2022-08-19T02:05:11.538Z,0.00
2022-08-19T02:06:11.498Z,0.00
2022-08-19T02:07:11.496Z,0.00
2022-08-19T02:08:11.468Z,0.00
2022-08-19T02:09:11.511Z,0.00
2022-08-19T02:10:12.485Z,0.00
2022-08-19T02:11:11.448Z,0.00
2022-08-19T02:12:11.475Z,0.00
2022-08-19T02:13:11.385Z,0.00
2022-08-19T02:14:11.358Z,0.00
2022-08-19T02:15:11.357Z,0.00
2022-08-19T02:16:11.365Z,0.00
2022-08-19T02:17:11.393Z,0.00
2022-08-19T02:18:11.358Z,0.00
2022-08-19T02:19:11.315Z,0.00
2022-08-19T02:20:11.336Z,0.00
2022-08-19T02:21:11.333Z,0.00
2022-08-19T02:22:11.292Z,0.00
2022-08-19T02:23:13.461Z,0.00
2022-08-19T02:24:11.243Z,0.00
2022-08-19T02:25:11.224Z,0.00
2022-08-19T02:26:11.240Z,0.00
2022-08-19T02:27:11.264Z,0.00
2022-08-19T02:28:11.915Z,0.00
2022-08-19T02:29:11.227Z,0.00
2022-08-19T02:30:14.106Z,0.00
2022-08-19T02:31:11.219Z,0.00
2022-08-19T02:32:11.139Z,0.00
2022-08-19T02:33:11.134Z,0.00
2022-08-19T02:34:11.151Z,0.00
2022-08-19T02:35:12.143Z,0.00
2022-08-19T02:36:11.162Z,0.00
2022-08-19T02:37:11.089Z,0.00
2022-08-19T02:38:11.079Z,0.00
2022-08-19T02:39:11.127Z,0.00
2022-08-19T02:40:12.487Z,0.00
2022-08-19T02:41:11.190Z,0.00
2022-08-19T02:42:11.027Z,0.00
2022-08-19T02:43:11.046Z,0.00
2022-08-19T02:44:30.081Z,0.00
2022-08-19T02:45:11.981Z,0.00
2022-08-19T02:46:11.008Z,0.00
2022-08-19T02:47:10.939Z,0.00
2022-08-19T02:48:21.213Z,0.00
2022-08-19T02:49:11.969Z,0.00
2022-08-19T02:50:10.908Z,0.00
2022-08-19T02:51:10.938Z,0.00
2022-08-19T02:52:10.918Z,0.00
2022-08-19T02:53:10.910Z,0.00
2022-08-19T02:54:10.888Z,0.00
2022-08-19T02:55:10.877Z,0.00
2022-08-19T02:56:10.903Z,0.00
2022-08-19T02:57:10.815Z,0.00
2022-08-19T02:58:10.816Z,0.00
2022-08-19T02:59:11.247Z,0.00
2022-08-19T03:00:10.795Z,0.00
2022-08-19T03:01:10.838Z,0.00
2022-08-19T03:02:10.824Z,0.00
2022-08-19T03:03:10.744Z,0.00
2022-08-19T03:04:10.749Z,0.00
2022-08-19T03:05:10.935Z,0.00
2022-08-19T03:06:10.723Z,0.00
2022-08-19T03:07:11.448Z,0.00
2022-08-19T03:08:10.673Z,0.00
2022-08-19T03:09:10.659Z,0.00
2022-08-19T03:10:10.672Z,0.00
2022-08-19T03:11:10.673Z,0.00
2022-08-19T03:12:10.663Z,0.00
2022-08-19T03:13:10.622Z,0.00
2022-08-19T03:14:10.609Z,0.00
2022-08-19T03:15:10.634Z,0.00
2022-08-19T03:16:10.612Z,0.00
2022-08-19T03:17:10.552Z,0.00
2022-08-19T03:18:10.579Z,0.00
2022-08-19T03:19:10.581Z,0.00
2022-08-19T03:20:10.531Z,0.00
2022-08-19T03:21:12.309Z,0.00
2022-08-19T03:22:10.491Z,0.00
2022-08-19T03:23:10.519Z,0.00
2022-08-19T03:24:10.487Z,0.00
2022-08-19T03:25:10.489Z,0.00
2022-08-19T03:26:16.051Z,0.00
2022-08-19T03:27:11.511Z,0.00
2022-08-19T03:28:10.430Z,0.00
2022-08-19T03:29:10.398Z,0.00
2022-08-19T03:30:11.690Z,0.00
2022-08-19T03:31:41.641Z,0.00
2022-08-19T03:32:32.520Z,0.00
2022-08-19T03:33:11.406Z,0.00
2022-08-19T03:34:11.394Z,0.00
2022-08-19T03:35:10.356Z,0.00
2022-08-19T03:36:10.355Z,0.00
2022-08-19T03:37:10.327Z,0.00
2022-08-19T03:38:10.308Z,0.00
2022-08-19T03:39:10.371Z,0.00
2022-08-19T03:40:10.318Z,0.00
2022-08-19T03:41:11.926Z,0.00
2022-08-19T03:42:32.456Z,0.00
2022-08-19T03:43:11.218Z,0.00
2022-08-19T03:44:11.041Z,0.00
2022-08-19T03:45:11.195Z,0.00
2022-08-19T03:46:10.207Z,0.00
2022-08-19T03:47:10.165Z,0.00
2022-08-19T03:48:10.165Z,0.00
2022-08-19T03:49:10.164Z,0.10
2022-08-19T03:50:10.166Z,0.17
2022-08-19T03:51:10.164Z,0.07
2022-08-19T03:52:10.153Z,0.07
2022-08-19T03:53:10.096Z,0.42
2022-08-19T03:54:10.073Z,0.52
2022-08-19T03:55:10.144Z,0.32
2022-08-19T03:56:10.084Z,0.86
2022-08-19T03:57:10.096Z,0.86
2022-08-19T03:58:10.072Z,1.31
2022-08-19T03:59:10.017Z,1.68
2022-08-19T04:00:13.062Z,2.00
2022-08-19T04:01:10.097Z,2.17
2022-08-19T04:02:10.021Z,2.30
2022-08-19T04:03:09.971Z,3.29
2022-08-19T04:04:10.114Z,3.80
2022-08-19T04:05:09.974Z,4.35
2022-08-19T04:06:09.940Z,4.99
2022-08-19T04:07:09.952Z,5.63
2022-08-19T04:08:13.796Z,6.15
2022-08-19T04:09:09.960Z,6.62
2022-08-19T04:10:10.714Z,7.04
2022-08-19T04:11:09.900Z,7.56
2022-08-19T04:12:09.870Z,8.00
2022-08-19T04:13:09.831Z,8.37
2022-08-19T04:14:09.822Z,8.87
2022-08-19T04:15:09.848Z,8.89
2022-08-19T04:16:09.809Z,9.19
2022-08-19T04:17:09.940Z,9.88
2022-08-19T04:18:09.777Z,10.13
2022-08-19T04:19:09.858Z,10.30
2022-08-19T04:20:09.737Z,10.45
2022-08-19T04:21:09.727Z,10.37
2022-08-19T04:22:09.741Z,10.79
2022-08-19T04:23:09.721Z,10.97
2022-08-19T04:24:09.696Z,11.24
2022-08-19T04:25:09.716Z,11.14
2022-08-19T04:26:09.661Z,11.34
2022-08-19T04:27:09.759Z,11.26
2022-08-19T04:28:09.669Z,11.26
2022-08-19T04:29:12.530Z,11.26
2022-08-19T04:30:09.665Z,11.61
2022-08-19T04:31:09.625Z,11.58
2022-08-19T04:32:09.980Z,11.68
2022-08-19T04:33:09.584Z,11.71
2022-08-19T04:34:09.574Z,11.68
2022-08-19T04:35:17.838Z,11.68
2022-08-19T04:36:10.564Z,11.29
2022-08-19T04:37:10.278Z,11.29
2022-08-19T04:38:09.549Z,11.73
2022-08-19T04:39:09.508Z,11.71
2022-08-19T04:40:10.278Z,11.51
2022-08-19T04:41:09.473Z,11.73
2022-08-19T04:42:09.670Z,11.71
2022-08-19T04:43:09.467Z,11.78
2022-08-19T04:44:09.474Z,12.79
2022-08-19T04:45:09.588Z,13.76
2022-08-19T04:46:09.448Z,13.81
2022-08-19T04:47:11.220Z,13.91
2022-08-19T04:48:19.782Z,13.88
2022-08-19T04:49:13.697Z,13.71
2022-08-19T04:50:09.379Z,13.91
2022-08-19T04:51:09.358Z,13.96
2022-08-19T04:52:09.449Z,13.96
2022-08-19T04:53:09.329Z,13.86
2022-08-19T04:54:09.340Z,13.71
2022-08-19T04:55:09.294Z,13.78
2022-08-19T04:56:09.285Z,13.71
2022-08-19T04:57:09.328Z,13.86
2022-08-19T04:58:09.309Z,13.83
2022-08-19T04:59:09.251Z,13.54
2022-08-19T05:00:09.249Z,13.83
2022-08-19T05:01:09.285Z,14.01
2022-08-19T05:02:09.242Z,13.93
2022-08-19T05:03:09.238Z,13.96
2022-08-19T05:04:09.897Z,13.81
2022-08-19T05:05:09.166Z,13.61
2022-08-19T05:06:09.158Z,13.46
2022-08-19T05:07:09.178Z,13.98
2022-08-19T05:08:09.147Z,13.88
2022-08-19T05:09:09.136Z,13.44
2022-08-19T05:10:09.185Z,13.78
2022-08-19T05:11:09.825Z,13.59
2022-08-19T05:12:09.114Z,13.98
2022-08-19T05:13:09.189Z,13.71
2022-08-19T05:14:09.117Z,14.05
2022-08-19T05:15:09.145Z,13.86
2022-08-19T05:16:09.045Z,13.73
2022-08-19T05:17:26.746Z,13.98
2022-08-19T05:18:10.018Z,13.73
2022-08-19T05:19:09.047Z,13.49
2022-08-19T05:20:09.004Z,13.39
2022-08-19T05:21:08.984Z,13.96
2022-08-19T05:22:08.988Z,13.36
2022-08-19T05:23:12.791Z,13.86
2022-08-19T05:24:09.945Z,14.05
2022-08-19T05:25:12.951Z,13.83
2022-08-19T05:26:08.903Z,13.86
2022-08-19T05:27:08.893Z,14.10
2022-08-19T05:28:08.883Z,13.73
2022-08-19T05:29:08.858Z,14.10
2022-08-19T05:30:08.857Z,13.63
2022-08-19T05:31:08.843Z,13.96
2022-08-19T05:32:08.849Z,13.86
2022-08-19T05:33:08.813Z,14.01
2022-08-19T05:34:18.220Z,13.83
2022-08-19T05:35:09.827Z,13.68
2022-08-19T05:36:08.766Z,13.31
2022-08-19T05:37:08.781Z,14.08
2022-08-19T05:38:08.780Z,14.03
2022-08-19T05:39:08.734Z,13.88
2022-08-19T05:40:08.866Z,14.10
2022-08-19T05:41:08.738Z,13.76
2022-08-19T05:42:08.727Z,13.71
2022-08-19T05:43:08.670Z,13.98
2022-08-19T05:44:08.689Z,13.91
2022-08-19T05:45:08.689Z,14.10
2022-08-19T05:46:08.638Z,13.59
2022-08-19T05:47:08.629Z,13.88
2022-08-19T05:48:08.677Z,13.51
2022-08-19T05:49:08.619Z,13.86
2022-08-19T05:50:08.620Z,14.15
2022-08-19T05:51:08.578Z,14.03
2022-08-19T05:52:08.608Z,14.13
2022-08-19T05:53:08.576Z,13.93
2022-08-19T05:54:08.535Z,14.10
2022-08-19T05:55:08.546Z,13.66
2022-08-19T05:56:08.508Z,13.71
2022-08-19T05:57:08.496Z,13.76
2022-08-19T05:58:08.550Z,13.51
2022-08-19T05:59:08.519Z,14.05
2022-08-19T06:00:08.555Z,14.03
2022-08-19T06:01:08.449Z,14.05
2022-08-19T06:02:08.472Z,13.88
2022-08-19T06:03:11.806Z,13.96
2022-08-19T06:04:08.415Z,13.71
2022-08-19T06:05:08.388Z,14.01
2022-08-19T06:06:08.396Z,13.59
2022-08-19T06:07:12.317Z,13.81
2022-08-19T06:08:08.403Z,13.76
2022-08-19T06:09:08.372Z,13.59
2022-08-19T06:10:08.335Z,13.86
2022-08-19T06:11:08.333Z,14.05
2022-08-19T06:12:08.303Z,13.68
2022-08-19T06:13:08.304Z,13.96
2022-08-19T06:14:08.284Z,14.03
2022-08-19T06:15:09.256Z,13.49
2022-08-19T06:16:08.273Z,13.81
2022-08-19T06:17:08.252Z,13.49
2022-08-19T06:18:08.251Z,13.91
2022-08-19T06:19:08.220Z,13.96
2022-08-19T06:20:08.201Z,14.01
2022-08-19T06:21:08.192Z,14.10
2022-08-19T06:22:08.166Z,14.08
2022-08-19T06:23:08.161Z,13.88
2022-08-19T06:24:08.169Z,13.93
2022-08-19T06:25:08.167Z,13.91
2022-08-19T06:26:08.129Z,14.13
2022-08-19T06:27:08.191Z,13.41
2022-08-19T06:28:15.774Z,13.49
2022-08-19T06:29:09.077Z,13.83
2022-08-19T06:30:08.094Z,13.98
2022-08-19T06:31:08.091Z,14.10
2022-08-19T06:32:08.068Z,13.83
2022-08-19T06:33:08.023Z,13.91
2022-08-19T06:34:08.019Z,13.68
2022-08-19T06:35:08.084Z,14.05
2022-08-19T06:36:07.999Z,14.13
2022-08-19T06:37:08.003Z,13.76
2022-08-19T06:38:07.964Z,13.63
2022-08-19T06:39:07.967Z,13.83
2022-08-19T06:40:07.968Z,13.91
2022-08-19T06:41:08.240Z,14.15
2022-08-19T06:42:07.925Z,14.05
2022-08-19T06:43:08.564Z,13.96
2022-08-19T06:44:07.897Z,13.78
2022-08-19T06:45:09.479Z,13.81
2022-08-19T06:46:07.885Z,13.86
2022-08-19T06:47:09.634Z,13.98
2022-08-19T06:48:08.869Z,14.03
2022-08-19T06:49:07.835Z,13.93
2022-08-19T06:50:07.825Z,14.25
2022-08-19T06:51:08.704Z,13.66
2022-08-19T06:52:07.816Z,14.28
2022-08-19T06:53:07.792Z,13.71
2022-08-19T06:54:07.761Z,14.01
2022-08-19T06:55:08.821Z,14.13
2022-08-19T06:56:07.841Z,13.73
2022-08-19T06:57:07.753Z,14.10
2022-08-19T06:58:07.769Z,14.23
2022-08-19T06:59:07.693Z,13.98
2022-08-19T07:00:12.276Z,13.63
2022-08-19T07:01:09.244Z,14.23
2022-08-19T07:02:07.778Z,14.05
2022-08-19T07:03:08.618Z,14.20
2022-08-19T07:04:07.645Z,14.25
2022-08-19T07:05:07.622Z,14.10
2022-08-19T07:06:09.841Z,14.33
2022-08-19T07:07:20.140Z,13.96
2022-08-19T07:08:08.603Z,13.66
2022-08-19T07:09:07.592Z,14.33
2022-08-19T07:10:07.870Z,14.08
2022-08-19T07:11:09.454Z,13.93
2022-08-19T07:12:07.549Z,13.96
2022-08-19T07:13:07.520Z,13.41
2022-08-19T07:14:07.621Z,13.68
2022-08-19T07:15:08.499Z,13.78
2022-08-19T07:16:07.489Z,14.18
2022-08-19T07:17:07.493Z,13.73
2022-08-19T07:18:07.500Z,13.76
2022-08-19T07:19:16.004Z,14.01
2022-08-19T07:20:09.689Z,13.73
2022-08-19T07:21:09.505Z,13.61
2022-08-19T07:22:07.457Z,14.20
2022-08-19T07:23:08.387Z,14.23
2022-08-19T07:24:07.614Z,14.33
2022-08-19T07:25:07.393Z,14.05
2022-08-19T07:26:07.398Z,13.86
2022-08-19T07:27:10.392Z,13.93
2022-08-19T07:28:08.337Z,14.05
2022-08-19T07:29:08.307Z,14.20
2022-08-19T07:30:07.325Z,13.73
2022-08-19T07:31:07.307Z,14.10
2022-08-19T07:32:07.279Z,14.15
2022-08-19T07:33:07.266Z,13.76
2022-08-19T07:34:07.276Z,14.03
2022-08-19T07:35:07.274Z,14.05
2022-08-19T07:36:07.250Z,14.30
2022-08-19T07:37:07.204Z,14.25
2022-08-19T07:38:07.216Z,14.05
2022-08-19T07:39:07.259Z,13.93
2022-08-19T07:40:07.310Z,14.30
2022-08-19T07:41:07.162Z,13.68
2022-08-19T07:42:07.245Z,13.76
2022-08-19T07:43:08.541Z,14.08
2022-08-19T07:44:07.133Z,13.73
2022-08-19T07:45:07.121Z,14.10
2022-08-19T07:46:07.094Z,14.30
2022-08-19T07:47:07.075Z,14.01
2022-08-19T07:48:08.098Z,13.91
2022-08-19T07:49:07.054Z,13.98
2022-08-19T07:50:07.713Z,14.25
2022-08-19T07:51:07.109Z,14.08
2022-08-19T07:52:07.032Z,13.96
2022-08-19T07:53:07.002Z,14.33
2022-08-19T07:54:07.029Z,14.23
2022-08-19T07:55:07.135Z,13.78
2022-08-19T07:56:07.971Z,13.83
2022-08-19T07:57:06.980Z,14.08
2022-08-19T07:58:07.180Z,13.81
2022-08-19T07:59:06.942Z,14.08
2022-08-19T08:00:06.949Z,14.08
2022-08-19T08:01:06.900Z,14.40
2022-08-19T08:02:07.040Z,13.59
2022-08-19T08:03:06.968Z,13.93
2022-08-19T08:04:06.870Z,14.08
2022-08-19T08:05:06.874Z,14.20
2022-08-19T08:06:06.890Z,14.20
2022-08-19T08:07:06.850Z,13.56
2022-08-19T08:08:06.829Z,13.76
2022-08-19T08:09:06.944Z,13.71
2022-08-19T08:10:07.881Z,14.10
2022-08-19T08:11:08.390Z,14.01
2022-08-19T08:12:30.800Z,13.59
2022-08-19T08:13:10.191Z,14.30
2022-08-19T08:14:06.766Z,14.23
2022-08-19T08:15:08.164Z,13.49
2022-08-19T08:16:06.846Z,14.03
2022-08-19T08:17:10.688Z,13.63
2022-08-19T08:18:06.758Z,13.86
2022-08-19T08:19:20.239Z,13.81
2022-08-19T08:20:07.699Z,14.25
2022-08-19T08:21:06.773Z,13.91
2022-08-19T08:22:06.640Z,14.28
2022-08-19T08:23:06.655Z,14.10
2022-08-19T08:24:06.844Z,13.54
2022-08-19T08:25:06.691Z,14.03
2022-08-19T08:26:06.600Z,13.46
2022-08-19T08:27:11.124Z,13.76
2022-08-19T08:28:07.704Z,14.18
2022-08-19T08:29:12.326Z,14.23
2022-08-19T08:30:07.535Z,13.93
2022-08-19T08:31:09.751Z,13.78
2022-08-19T08:32:14.851Z,14.40
2022-08-19T08:33:07.547Z,14.38
2022-08-19T08:34:06.634Z,14.01
2022-08-19T08:35:06.489Z,14.33
2022-08-19T08:36:06.488Z,13.96
2022-08-19T08:37:06.452Z,13.81
2022-08-19T08:38:06.442Z,14.23
2022-08-19T08:39:06.442Z,13.91
2022-08-19T08:40:08.084Z,14.20
2022-08-19T08:41:06.392Z,13.88
2022-08-19T08:42:10.080Z,14.33
2022-08-19T08:43:06.432Z,13.61
2022-08-19T08:44:07.384Z,13.96
2022-08-19T08:45:06.334Z,14.28
2022-08-19T08:46:06.452Z,14.20
2022-08-19T08:47:07.925Z,14.08
2022-08-19T08:48:06.313Z,13.91
2022-08-19T08:49:07.329Z,13.96
2022-08-19T08:50:06.357Z,13.78
2022-08-19T08:51:06.260Z,14.40
2022-08-19T08:52:06.266Z,14.18
2022-08-19T08:53:06.290Z,14.03
2022-08-19T08:54:06.300Z,13.78
2022-08-19T08:55:10.310Z,13.88
2022-08-19T08:56:06.199Z,14.20
2022-08-19T08:57:06.229Z,14.23
2022-08-19T08:58:06.192Z,14.05
2022-08-19T08:59:06.157Z,14.15
2022-08-19T09:00:06.184Z,13.66
2022-08-19T09:01:07.204Z,13.71
2022-08-19T09:02:06.129Z,14.01
2022-08-19T09:03:06.232Z,14.05
2022-08-19T09:04:06.135Z,13.96
2022-08-19T09:05:06.086Z,14.23
2022-08-19T09:06:06.082Z,14.43
2022-08-19T09:07:33.899Z,14.08
2022-08-19T09:08:07.085Z,14.05
2022-08-19T09:09:11.792Z,13.98
2022-08-19T09:10:07.138Z,14.35
2022-08-19T09:11:06.026Z,14.15
2022-08-19T09:12:05.995Z,14.03
2022-08-19T09:13:09.163Z,14.23
2022-08-19T09:14:05.998Z,14.45
2022-08-19T09:15:05.979Z,14.38
2022-08-19T09:16:05.966Z,13.34
2022-08-19T09:17:05.963Z,13.93
2022-08-19T09:18:07.027Z,14.30
2022-08-19T09:19:06.410Z,13.96
2022-08-19T09:20:05.924Z,13.98
2022-08-19T09:21:05.981Z,14.25
2022-08-19T09:22:05.924Z,14.20
2022-08-19T09:23:05.854Z,14.15
2022-08-19T09:24:05.843Z,14.25
2022-08-19T09:25:05.848Z,14.15
2022-08-19T09:26:05.834Z,14.10
2022-08-19T09:27:18.626Z,14.13
2022-08-19T09:28:12.677Z,14.03
2022-08-19T09:29:06.893Z,13.93
2022-08-19T09:30:05.791Z,14.47
2022-08-19T09:31:05.839Z,14.30
2022-08-19T09:32:05.923Z,14.18
2022-08-19T09:33:06.752Z,14.10
2022-08-19T09:34:05.941Z,14.10
2022-08-19T09:35:08.857Z,14.01
2022-08-19T09:36:08.421Z,14.15
2022-08-19T09:37:05.721Z,13.91
2022-08-19T09:38:05.684Z,13.81
2022-08-19T09:39:05.732Z,13.76
2022-08-19T09:40:06.863Z,14.01
2022-08-19T09:41:05.702Z,13.71
2022-08-19T09:42:05.625Z,14.20
2022-08-19T09:43:11.455Z,13.98
2022-08-19T09:44:06.960Z,13.68
2022-08-19T09:45:10.386Z,13.81
2022-08-19T09:46:06.564Z,14.08
2022-08-19T09:47:05.622Z,14.33
2022-08-19T09:48:05.549Z,14.08
2022-08-19T09:49:06.568Z,14.33
2022-08-19T09:50:05.516Z,14.23
2022-08-19T09:51:05.600Z,14.25
2022-08-19T09:52:05.542Z,14.01
2022-08-19T09:53:05.488Z,14.40
2022-08-19T09:54:05.599Z,13.96
2022-08-19T09:55:07.164Z,14.28
2022-08-19T09:56:05.467Z,14.13
2022-08-19T09:57:07.611Z,14.33
2022-08-19T09:58:05.436Z,13.81
2022-08-19T09:59:05.407Z,14.10
2022-08-19T10:00:05.406Z,14.08
2022-08-19T10:01:05.411Z,14.25
2022-08-19T10:02:10.719Z,14.05
2022-08-19T10:03:07.089Z,13.73
2022-08-19T10:04:14.606Z,14.20
2022-08-19T10:05:06.325Z,13.68
2022-08-19T10:06:05.367Z,14.25
2022-08-19T10:07:06.326Z,14.10
2022-08-19T10:08:05.314Z,14.05
2022-08-19T10:09:06.488Z,13.76
2022-08-19T10:10:05.294Z,13.49
2022-08-19T10:11:27.244Z,14.08
2022-08-19T10:12:06.369Z,14.05
2022-08-19T10:13:06.288Z,14.45
2022-08-19T10:14:05.223Z,13.91
2022-08-19T10:15:05.193Z,13.98
2022-08-19T10:16:05.288Z,14.03
2022-08-19T10:17:17.655Z,14.01
2022-08-19T10:18:06.402Z,14.10
2022-08-19T10:19:05.922Z,14.40
2022-08-19T10:20:05.122Z,14.43
2022-08-19T10:21:05.341Z,14.38
2022-08-19T10:22:05.120Z,14.47
2022-08-19T10:23:06.132Z,14.23
2022-08-19T10:24:05.139Z,14.03
2022-08-19T10:25:05.101Z,14.28
2022-08-19T10:26:05.051Z,13.88
2022-08-19T10:27:05.031Z,14.23
2022-08-19T10:28:05.397Z,13.59
2022-08-19T10:29:06.051Z,13.93
2022-08-19T10:30:05.000Z,14.13
2022-08-19T10:31:06.014Z,13.91
2022-08-19T10:32:04.999Z,14.25
2022-08-19T10:33:08.489Z,14.01
2022-08-19T10:34:06.112Z,13.61
2022-08-19T10:35:06.050Z,13.88
2022-08-19T10:36:04.980Z,14.03
2022-08-19T10:37:05.422Z,19.17
2022-08-19T10:38:06.184Z,19.19
2022-08-19T10:39:04.973Z,19.12
2022-08-19T10:40:04.941Z,19.19
2022-08-19T10:41:04.928Z,19.12
2022-08-19T10:42:04.850Z,19.66
2022-08-19T10:43:05.024Z,19.56
2022-08-19T10:44:04.895Z,19.69
2022-08-19T10:45:05.042Z,19.83
2022-08-19T10:46:04.871Z,19.56
2022-08-19T10:47:04.818Z,19.71
2022-08-19T10:48:05.867Z,19.51
2022-08-19T10:49:04.888Z,19.32
2022-08-19T10:50:04.986Z,18.72
2022-08-19T10:51:04.766Z,18.67
2022-08-19T10:52:04.721Z,18.77
2022-08-19T10:53:08.093Z,18.72
2022-08-19T10:54:06.793Z,19.34
2022-08-19T10:55:08.453Z,19.79
2022-08-19T10:56:04.677Z,19.81
2022-08-19T10:57:04.689Z,20.03
2022-08-19T10:58:04.883Z,20.06
2022-08-19T10:59:04.677Z,19.69
2022-08-19T11:00:04.654Z,19.64
2022-08-19T11:01:04.787Z,19.81
2022-08-19T11:02:04.644Z,20.13
2022-08-19T11:03:04.585Z,20.23
2022-08-19T11:04:04.564Z,20.30
2022-08-19T11:05:05.151Z,20.35
2022-08-19T11:06:05.553Z,20.48
2022-08-19T11:07:04.574Z,20.33
2022-08-19T11:08:04.553Z,20.72
2022-08-19T11:09:05.554Z,20.82
2022-08-19T11:10:04.523Z,20.72
2022-08-19T11:11:04.494Z,20.38
2022-08-19T11:12:05.037Z,20.67
2022-08-19T11:13:04.453Z,20.55
2022-08-19T11:14:04.473Z,20.43
2022-08-19T11:15:04.432Z,20.43
2022-08-19T11:16:07.632Z,20.62
2022-08-19T11:17:04.535Z,20.45
2022-08-19T11:18:04.472Z,20.25
2022-08-19T11:19:04.429Z,20.55
2022-08-19T11:20:04.465Z,20.38
2022-08-19T11:21:04.390Z,19.96
2022-08-19T11:22:04.364Z,20.13
2022-08-19T11:23:04.480Z,20.13
2022-08-19T11:24:04.444Z,19.79
2022-08-19T11:25:04.343Z,19.69
2022-08-19T11:26:04.330Z,19.29
2022-08-19T11:27:04.289Z,19.22
2022-08-19T11:28:04.269Z,19.04
2022-08-19T11:29:04.290Z,18.87
2022-08-19T11:30:04.252Z,18.67
2022-08-19T11:31:04.276Z,19.02
2022-08-19T11:32:04.239Z,19.24
2022-08-19T11:33:04.228Z,19.09
2022-08-19T11:34:04.232Z,19.34
2022-08-19T11:35:04.200Z,19.83
2022-08-19T11:36:04.167Z,19.56
2022-08-19T11:37:04.198Z,19.86
2022-08-19T11:38:07.166Z,20.11
2022-08-19T11:39:05.200Z,20.13
2022-08-19T11:40:04.177Z,20.13
2022-08-19T11:41:04.110Z,20.75
2022-08-19T11:42:04.151Z,20.85
2022-08-19T11:43:04.067Z,20.82
2022-08-19T11:44:04.089Z,20.38
2022-08-19T11:45:04.060Z,20.80
2022-08-19T11:46:04.762Z,20.85
2022-08-19T11:47:09.129Z,20.87
2022-08-19T11:48:05.039Z,20.43
2022-08-19T11:49:04.101Z,20.90
2022-08-19T11:50:03.985Z,20.92
2022-08-19T11:51:04.062Z,20.85
2022-08-19T11:52:04.002Z,20.87
2022-08-19T11:53:03.975Z,20.80
2022-08-19T11:54:03.945Z,20.30
2022-08-19T11:55:03.938Z,20.67
2022-08-19T11:56:07.682Z,20.28
2022-08-19T11:57:03.928Z,20.65
2022-08-19T11:58:03.918Z,20.53
2022-08-19T11:59:03.912Z,20.62
2022-08-19T12:00:03.913Z,21.00
2022-08-19T12:01:03.843Z,21.02
2022-08-19T12:02:03.824Z,20.95
2022-08-19T12:03:03.843Z,20.53
2022-08-19T12:04:03.864Z,20.55
2022-08-19T12:05:03.795Z,20.67
2022-08-19T12:06:03.781Z,20.38
2022-08-19T12:07:03.809Z,20.55
2022-08-19T12:08:07.464Z,20.90
2022-08-19T12:09:03.811Z,20.85
2022-08-19T12:10:03.726Z,20.77
2022-08-19T12:11:03.723Z,20.55
2022-08-19T12:12:03.703Z,20.62
2022-08-19T12:13:03.703Z,20.70
2022-08-19T12:14:03.705Z,20.75
2022-08-19T12:15:03.710Z,20.77
2022-08-19T12:16:03.681Z,20.70
2022-08-19T12:17:03.669Z,20.55
2022-08-19T12:18:03.701Z,20.40
2022-08-19T12:19:03.637Z,20.35
2022-08-19T12:20:03.776Z,20.35
2022-08-19T12:21:03.644Z,20.38
2022-08-19T12:22:03.576Z,20.45
2022-08-19T12:23:03.581Z,20.53
2022-08-19T12:24:03.557Z,20.28
2022-08-19T12:25:03.558Z,20.80
2022-08-19T12:26:03.544Z,20.80
2022-08-19T12:27:03.546Z,20.85
2022-08-19T12:28:04.118Z,20.62
2022-08-19T12:29:03.529Z,20.75
2022-08-19T12:30:03.525Z,20.97
2022-08-19T12:31:03.483Z,21.00
2022-08-19T12:32:03.756Z,21.19
2022-08-19T12:33:03.483Z,21.22
2022-08-19T12:34:03.490Z,20.85
2022-08-19T12:35:03.436Z,21.34
2022-08-19T12:36:03.460Z,20.90
2022-08-19T12:37:03.381Z,21.24
2022-08-19T12:38:03.409Z,20.82
2022-08-19T12:39:03.367Z,21.02
2022-08-19T12:40:03.408Z,20.80
2022-08-19T12:41:03.518Z,21.00
2022-08-19T12:42:03.336Z,20.92
2022-08-19T12:43:03.326Z,20.55
2022-08-19T12:44:03.383Z,20.75
2022-08-19T12:45:03.313Z,20.65
2022-08-19T12:46:03.286Z,20.77
2022-08-19T12:47:03.982Z,20.75
2022-08-19T12:48:03.467Z,21.02
2022-08-19T12:49:05.157Z,20.80
2022-08-19T12:50:06.901Z,20.67
2022-08-19T12:51:03.217Z,21.00
2022-08-19T12:52:03.205Z,20.90
2022-08-19T12:53:03.229Z,21.04
2022-08-19T12:54:03.276Z,21.12
2022-08-19T12:55:03.194Z,20.77
2022-08-19T12:56:03.199Z,20.85
2022-08-19T12:57:03.246Z,21.14
2022-08-19T12:58:03.146Z,21.14
2022-08-19T12:59:03.176Z,21.09
2022-08-19T13:00:03.466Z,21.14
2022-08-19T13:01:03.165Z,21.34